Time;durP1;ratioP1;P1;durP2;ratioP2;P2;SDS_P1;SDS_P2;PMS_P1;PMS_P2;Temp;Humidity;BMP_temperature;BMP_pressure;BME280_temperature;BME280_humidity;BME280_pressure;Samples;Min_cycle;Max_cycle;Signal;HPM_P1;HPM_P2
2022/08/21 00:00:18;;;;;;;2.53;1.77;;;;;;;16.69;61.73;100590.94;5083640;28;20419;-68
2022/08/21 00:02:49;;;;;;;2.38;1.98;;;;;;;16.72;61.67;100595.06;5084330;28;21449;-68
2022/08/21 00:05:14;;;;;;;3.53;2.22;;;;;;;16.81;61.62;100593.13;5078306;28;20654;-68
2022/08/21 00:07:40;;;;;;;2.78;2.30;;;;;;;16.83;61.55;100591.94;5084457;28;20051;-66
2022/08/21 00:10:06;;;;;;;2.90;1.98;;;;;;;16.84;61.47;100590.91;5075230;28;20037;-68
2022/08/21 00:12:31;;;;;;;3.88;2.20;;;;;;;16.85;60.98;100581.03;5084739;28;20067;-66
2022/08/21 00:14:57;;;;;;;3.53;2.10;;;;;;;16.86;61.20;100591.53;5082799;28;20601;-66
2022/08/21 00:17:23;;;;;;;3.40;2.50;;;;;;;16.89;61.46;100587.66;5070536;28;20051;-66
2022/08/21 00:19:50;;;;;;;2.88;2.10;;;;;;;16.89;61.34;100585.81;5060585;28;20073;-67
2022/08/21 00:22:17;;;;;;;2.80;2.20;;;;;;;16.89;61.51;100582.31;5070413;28;20028;-67
2022/08/21 00:24:42;;;;;;;3.70;2.50;;;;;;;16.80;62.24;100578.94;5067566;28;20044;-67
2022/08/21 00:27:08;;;;;;;3.80;2.90;;;;;;;16.69;62.80;100576.75;5083751;28;20940;-68
2022/08/21 00:29:33;;;;;;;3.25;2.38;;;;;;;16.61;62.64;100579.53;5085377;28;20500;-67
2022/08/21 00:31:58;;;;;;;3.33;2.33;;;;;;;16.51;63.09;100575.34;5083715;28;20496;-67
2022/08/21 00:34:24;;;;;;;3.17;2.35;;;;;;;16.46;63.27;100577.75;5088436;28;20081;-67
2022/08/21 00:36:50;;;;;;;4.35;2.65;;;;;;;16.42;63.25;100580.97;5072115;28;20309;-68
2022/08/21 00:39:15;;;;;;;3.85;2.45;;;;;;;16.40;62.93;100580.34;5075400;28;20060;-67
2022/08/21 00:41:41;;;;;;;3.22;2.60;;;;;;;16.36;63.41;100569.22;5087081;28;20040;-67
2022/08/21 00:44:09;;;;;;;2.80;2.00;;;;;;;16.31;63.48;100575.13;5083786;28;20040;-66
2022/08/21 00:46:36;;;;;;;3.63;2.20;;;;;;;16.28;63.18;100567.50;5083545;28;20394;-67
2022/08/21 00:49:03;;;;;;;3.67;2.50;;;;;;;16.25;63.79;100572.38;5086390;28;20093;-67
2022/08/21 00:51:38;;;;;;;3.78;2.60;;;;;;;16.21;64.05;100571.09;5088017;28;20488;-67
2022/08/21 00:54:05;;;;;;;3.25;2.40;;;;;;;16.14;64.48;100566.53;5085676;28;20044;-67
2022/08/21 00:56:31;;;;;;;3.42;2.83;;;;;;;16.09;65.03;100576.94;5075442;28;20031;-67
2022/08/21 00:58:58;;;;;;;4.05;2.90;;;;;;;16.05;65.35;100578.31;5072142;28;20033;-66
2022/08/21 01:01:23;;;;;;;3.25;2.60;;;;;;;15.99;65.31;100571.03;5088386;28;20032;-68
2022/08/21 01:03:49;;;;;;;4.20;2.88;;;;;;;15.95;65.54;100574.28;5086404;28;20241;-67
2022/08/21 01:06:14;;;;;;;3.83;2.83;;;;;;;15.89;65.63;100570.50;5083647;28;20385;-67
2022/08/21 01:08:40;;;;;;;3.15;2.60;;;;;;;15.84;65.65;100576.41;5075526;28;20074;-67
2022/08/21 01:11:05;;;;;;;3.45;2.42;;;;;;;15.85;65.38;100578.06;5084558;28;20059;-67
2022/08/21 01:13:35;;;;;;;6.45;2.90;;;;;;;15.83;66.50;100579.28;5081661;28;20040;-67
2022/08/21 01:16:04;;;;;;;3.30;2.58;;;;;;;15.82;65.58;100572.25;5066040;28;20096;-67
2022/08/21 01:18:29;;;;;;;4.15;2.85;;;;;;;15.78;66.51;100571.81;5082250;28;20032;-67
2022/08/21 01:21:17;;;;;;;4.63;2.80;;;;;;;15.77;65.74;100575.47;5082481;28;20035;-67
2022/08/21 01:23:48;;;;;;;4.30;2.83;;;;;;;15.74;66.99;100573.19;5084079;28;20036;-67
2022/08/21 01:26:16;;;;;;;4.40;2.90;;;;;;;15.70;66.29;100572.72;5083837;28;20386;-67
2022/08/21 01:29:01;;;;;;;3.28;2.90;;;;;;;15.65;66.65;100580.41;5085647;28;20458;-67
2022/08/21 01:31:28;;;;;;;3.60;2.90;;;;;;;15.62;66.21;100572.78;5082590;28;20476;-67
2022/08/21 01:33:55;;;;;;;4.35;2.38;;;;;;;15.62;66.30;100572.78;5083753;28;20036;-67
2022/08/21 01:36:21;;;;;;;3.75;2.65;;;;;;;15.58;66.29;100568.84;5084193;28;20035;-67
2022/08/21 01:38:47;;;;;;;4.35;3.15;;;;;;;15.54;66.90;100570.22;5084481;28;20036;-68
2022/08/21 01:41:14;;;;;;;3.30;2.53;;;;;;;15.52;66.46;100580.25;5066053;28;20566;-69
2022/08/21 01:43:40;;;;;;;3.17;2.58;;;;;;;15.50;67.46;100575.09;5084651;28;20500;-68
2022/08/21 01:46:05;;;;;;;3.90;2.70;;;;;;;15.50;67.17;100575.09;5082115;28;20050;-67
2022/08/21 01:48:30;;;;;;;3.33;2.70;;;;;;;15.48;67.30;100577.09;5083712;28;20036;-68
2022/08/21 01:50:56;;;;;;;3.80;3.30;;;;;;;15.46;67.91;100579.13;5082272;28;20089;-66
2022/08/21 01:53:21;;;;;;;3.45;2.90;;;;;;;15.42;68.09;100574.31;5083970;28;20055;-67
2022/08/21 01:55:46;;;;;;;4.65;3.30;;;;;;;15.36;68.06;100575.91;5083499;28;20161;-67
2022/08/21 01:58:12;;;;;;;5.75;3.45;;;;;;;15.33;68.86;100572.78;5082861;28;20090;-66
2022/08/21 02:00:38;;;;;;;4.75;3.40;;;;;;;15.31;68.51;100575.63;5083618;28;20040;-67
2022/08/21 02:03:03;;;;;;;4.20;2.85;;;;;;;15.29;68.23;100573.13;5069660;28;20032;-67
2022/08/21 02:05:28;;;;;;;3.83;3.00;;;;;;;15.28;68.50;100568.81;5085997;28;20044;-67
2022/08/21 02:07:56;;;;;;;4.53;2.80;;;;;;;15.27;68.63;100569.81;5084439;28;20147;-67
2022/08/21 02:10:28;;;;;;;4.32;3.10;;;;;;;15.27;68.32;100567.16;5087109;28;20048;-67
2022/08/21 02:12:55;;;;;;;5.00;3.42;;;;;;;15.25;68.31;100561.19;5087177;28;20043;-67
2022/08/21 02:15:20;;;;;;;3.33;2.65;;;;;;;15.24;68.26;100559.53;5086852;28;20035;-67
2022/08/21 02:17:50;;;;;;;3.92;2.90;;;;;;;15.23;68.32;100554.38;5087564;28;20042;-68
2022/08/21 02:20:38;;;;;;;4.15;3.15;;;;;;;15.22;68.68;100550.88;5085708;28;20055;-67
2022/08/21 02:23:04;;;;;;;4.65;3.22;;;;;;;15.21;68.72;100554.56;5084418;28;20063;-68
2022/08/21 02:25:30;;;;;;;4.10;3.15;;;;;;;15.20;68.85;100552.91;5081911;28;20044;-68
2022/08/21 02:27:57;;;;;;;3.90;2.95;;;;;;;15.16;68.62;100553.44;5085303;28;20111;-66
2022/08/21 02:30:29;;;;;;;4.10;3.20;;;;;;;15.14;68.67;100550.16;5069297;28;20054;-67
2022/08/21 02:32:55;;;;;;;3.92;3.40;;;;;;;15.10;69.11;100548.84;5086106;28;20404;-67
2022/08/21 02:35:21;;;;;;;4.32;3.45;;;;;;;15.08;69.19;100559.69;5069310;28;20040;-67
2022/08/21 02:37:55;;;;;;;4.72;3.30;;;;;;;15.06;69.33;100551.03;5081676;28;20039;-67
2022/08/21 02:40:25;;;;;;;4.53;3.05;;;;;;;15.05;69.44;100547.53;5085431;28;20039;-66
2022/08/21 02:42:51;;;;;;;5.13;3.80;;;;;;;15.02;69.44;100545.25;5082928;28;20393;-67
2022/08/21 02:45:17;;;;;;;4.85;3.70;;;;;;;15.01;70.03;100548.91;5083561;28;20042;-67
2022/08/21 02:47:54;;;;;;;5.22;3.60;;;;;;;14.97;70.00;100544.97;5081261;28;20036;-66
2022/08/21 02:50:32;;;;;;;5.05;3.95;;;;;;;14.96;69.75;100551.28;5086382;28;20389;-67
2022/08/21 02:52:58;;;;;;;4.20;3.40;;;;;;;14.93;69.59;100546.34;5085787;28;20452;-67
2022/08/21 02:55:26;;;;;;;4.00;3.20;;;;;;;14.93;69.53;100543.66;5088814;28;20131;-67
2022/08/21 02:57:53;;;;;;;5.18;4.10;;;;;;;14.93;70.10;100537.53;5069572;28;20143;-66
2022/08/21 03:00:20;;;;;;;4.78;3.78;;;;;;;14.91;70.25;100539.53;5084758;28;20096;-66
2022/08/21 03:02:46;;;;;;;4.70;3.88;;;;;;;14.89;70.40;100539.69;5087219;28;20553;-68
2022/08/21 03:05:12;;;;;;;5.57;3.97;;;;;;;14.89;70.58;100538.88;5088892;28;20153;-67
2022/08/21 03:07:38;;;;;;;5.25;4.00;;;;;;;14.86;70.85;100540.88;5087245;28;20108;-67
2022/08/21 03:10:05;;;;;;;5.03;3.83;;;;;;;14.86;70.66;100538.22;5085266;28;20044;-67
2022/08/21 03:12:30;;;;;;;4.47;3.70;;;;;;;14.86;70.70;100542.72;5087856;28;20032;-66
2022/08/21 03:14:55;;;;;;;5.20;4.00;;;;;;;14.87;71.16;100547.03;5083412;28;20403;-67
2022/08/21 03:17:21;;;;;;;5.18;4.15;;;;;;;14.84;71.05;100545.56;5086754;28;20043;-66
2022/08/21 03:19:46;;;;;;;4.45;3.92;;;;;;;14.84;70.61;100542.91;5088266;28;20068;-67
2022/08/21 03:22:11;;;;;;;4.87;3.60;;;;;;;14.82;71.07;100542.25;5085976;28;20063;-66
2022/08/21 03:24:37;;;;;;;5.10;4.13;;;;;;;14.81;71.12;100539.78;5089146;28;20270;-67
2022/08/21 03:27:03;;;;;;;4.28;3.63;;;;;;;14.79;71.33;100544.44;5087953;28;20035;-67
2022/08/21 03:29:28;;;;;;;5.35;4.00;;;;;;;14.77;71.45;100543.81;5070299;28;20132;-66
2022/08/21 03:31:54;;;;;;;5.45;4.32;;;;;;;14.71;71.80;100537.38;5087922;28;20047;-67
2022/08/21 03:34:20;;;;;;;5.47;4.22;;;;;;;14.69;71.59;100550.03;5070233;28;20040;-67
2022/08/21 03:36:45;;;;;;;4.30;3.90;;;;;;;14.66;71.70;100545.06;5070841;28;20040;-67
2022/08/21 03:39:11;;;;;;;5.25;4.10;;;;;;;14.63;71.94;100540.06;5087252;28;20074;-67
2022/08/21 03:41:36;;;;;;;4.70;4.20;;;;;;;14.61;72.19;100542.94;5089418;28;20039;-66
2022/08/21 03:44:02;;;;;;;4.55;3.88;;;;;;;14.56;71.67;100550.63;5084560;28;20513;-67
2022/08/21 03:46:27;;;;;;;5.00;3.97;;;;;;;14.54;71.87;100546.47;5071112;28;20485;-67
2022/08/21 03:48:52;;;;;;;5.22;3.70;;;;;;;14.49;72.03;100547.00;5084380;28;20044;-67
2022/08/21 03:51:18;;;;;;;4.18;3.70;;;;;;;14.49;71.83;100544.31;5087456;28;20118;-67
2022/08/21 03:53:44;;;;;;;7.03;5.00;;;;;;;14.48;73.61;100547.16;5086364;28;20051;-67
2022/08/21 03:56:10;;;;;;;6.03;4.72;;;;;;;14.55;73.26;100562.25;5085783;28;20410;-67
2022/08/21 03:58:36;;;;;;;5.60;4.05;;;;;;;14.56;72.52;100561.28;5086827;28;20107;-67
2022/08/21 04:01:04;;;;;;;6.38;5.05;;;;;;;14.58;72.52;100564.56;5086299;28;20131;-68
2022/08/21 04:03:29;;;;;;;6.20;4.35;;;;;;;14.55;72.56;100561.44;5083358;28;20388;-68
2022/08/21 04:05:55;;;;;;;6.18;4.03;;;;;;;14.52;72.24;100565.25;5085319;28;20028;-67
2022/08/21 04:08:20;;;;;;;5.80;4.30;;;;;;;14.56;72.35;100563.94;5086135;28;20070;-66
2022/08/21 04:10:48;;;;;;;5.50;4.15;;;;;;;14.58;72.60;100563.72;5087300;28;20044;-67
2022/08/21 04:13:14;;;;;;;5.40;3.92;;;;;;;14.54;72.26;100573.91;5086255;28;20111;-67
2022/08/21 04:15:40;;;;;;;4.75;3.70;;;;;;;14.53;72.25;100576.72;5086606;28;20032;-67
2022/08/21 04:18:06;;;;;;;6.15;4.43;;;;;;;14.49;72.85;100580.72;5084562;28;20040;-67
2022/08/21 04:20:32;;;;;;;5.15;4.05;;;;;;;14.46;72.46;100579.25;5086925;28;20097;-67
2022/08/21 04:22:58;;;;;;;6.78;4.45;;;;;;;14.41;72.84;100585.09;5067840;28;20042;-67
2022/08/21 04:25:25;;;;;;;5.25;4.40;;;;;;;14.39;73.16;100586.28;5085577;28;20036;-67
2022/08/21 04:27:50;;;;;;;5.32;4.28;;;;;;;14.38;72.89;100584.63;5083856;28;20036;-67
2022/08/21 04:30:17;;;;;;;4.88;4.07;;;;;;;14.36;73.01;100586.63;5085832;28;20127;-67
2022/08/21 04:32:44;;;;;;;5.32;4.40;;;;;;;14.36;73.11;100587.44;5087440;28;20093;-66
2022/08/21 04:35:11;;;;;;;4.70;3.70;;;;;;;14.37;72.82;100588.28;5084544;28;20071;-67
2022/08/21 04:37:36;;;;;;;4.35;3.08;;;;;;;14.39;72.87;100596.91;5086766;28;20043;-67
2022/08/21 04:40:03;;;;;;;5.07;3.58;;;;;;;14.43;72.78;100595.56;5084843;28;20044;-67
2022/08/21 04:42:28;;;;;;;3.70;3.30;;;;;;;14.45;72.73;100597.03;5079058;28;20032;-67
2022/08/21 04:44:54;;;;;;;4.40;3.30;;;;;;;14.45;72.45;100604.22;5085878;28;20430;-67
2022/08/21 04:47:20;;;;;;;3.85;3.00;;;;;;;14.45;72.71;100597.03;5085379;28;20092;-67
2022/08/21 04:49:46;;;;;;;4.72;3.35;;;;;;;14.50;72.48;100599.19;5085043;28;20036;-67
2022/08/21 04:52:17;;;;;;;5.93;4.20;;;;;;;14.53;73.43;100598.00;5073509;28;20602;-67
2022/08/21 04:54:45;;;;;;;5.22;3.72;;;;;;;14.50;73.41;100593.88;5084926;28;20036;-67
2022/08/21 04:57:11;;;;;;;4.60;3.80;;;;;;;14.49;73.08;100602.00;5084783;28;20529;-68
2022/08/21 04:59:44;;;;;;;4.47;3.40;;;;;;;14.50;73.21;100601.03;5085307;28;20040;-67
2022/08/21 05:02:10;;;;;;;4.20;3.45;;;;;;;14.50;73.12;100609.81;5082751;28;20050;-66
2022/08/21 05:04:40;;;;;;;4.30;3.80;;;;;;;14.52;73.48;100602.50;5084229;28;20073;-67
2022/08/21 05:07:10;;;;;;;5.75;4.47;;;;;;;14.54;73.77;100611.16;5085706;28;20535;-68
2022/08/21 05:09:37;;;;;;;4.65;4.18;;;;;;;14.58;73.73;100606.31;5066636;28;20047;-67
2022/08/21 05:12:03;;;;;;;4.20;3.60;;;;;;;14.62;73.34;100608.44;5085201;28;20051;-68
2022/08/21 05:14:28;;;;;;;5.13;3.72;;;;;;;14.68;73.73;100606.09;5079286;28;20395;-67
2022/08/21 05:16:53;;;;;;;4.68;3.60;;;;;;;14.77;73.69;100608.50;5084709;28;20032;-67
2022/08/21 05:19:19;;;;;;;4.30;3.60;;;;;;;14.94;73.55;100614.53;5085697;28;20040;-67
2022/08/21 05:21:47;;;;;;;4.45;3.60;;;;;;;15.12;73.55;100610.75;5085856;28;20491;-68
2022/08/21 05:24:12;;;;;;;3.90;3.17;;;;;;;15.38;72.64;100623.69;5084650;28;20598;-67
2022/08/21 05:26:38;;;;;;;3.85;3.13;;;;;;;15.65;72.11;100619.56;5086285;28;20040;-67
2022/08/21 05:29:04;;;;;;;4.38;3.35;;;;;;;15.96;71.61;100621.28;5085250;28;20456;-68
2022/08/21 05:31:29;;;;;;;4.57;3.70;;;;;;;16.27;71.07;100621.06;5086006;28;20032;-67
2022/08/21 05:33:55;;;;;;;5.75;4.38;;;;;;;16.52;70.15;100622.38;5085831;28;20099;-69
2022/08/21 05:36:21;;;;;;;4.20;3.33;;;;;;;16.75;69.95;100619.53;5084436;28;20040;-68
2022/08/21 05:38:46;;;;;;;4.07;3.33;;;;;;;17.03;69.48;100618.81;5087237;28;20568;-69
2022/08/21 05:41:11;;;;;;;4.35;3.42;;;;;;;17.36;68.96;100624.44;5088485;28;20420;-69
2022/08/21 05:43:37;;;;;;;4.22;2.92;;;;;;;17.65;68.31;100632.44;5086518;28;20096;-68
2022/08/21 05:46:04;;;;;;;3.67;2.60;;;;;;;17.90;67.79;100624.81;5071135;28;20089;-68
2022/08/21 05:48:30;;;;;;;3.65;2.75;;;;;;;18.22;67.09;100628.69;5086297;28;20036;-68
2022/08/21 05:50:56;;;;;;;3.50;2.50;;;;;;;18.55;66.30;100628.78;5073309;28;20579;-67
2022/08/21 05:53:23;;;;;;;3.20;2.42;;;;;;;18.85;65.10;100623.97;5090035;28;20127;-68
2022/08/21 05:55:49;;;;;;;3.92;3.13;;;;;;;19.20;64.63;100620.25;5084455;28;20067;-71
2022/08/21 05:58:17;;;;;;;3.92;2.90;;;;;;;19.55;63.89;100618.19;5089657;28;20036;-68
2022/08/21 06:00:42;;;;;;;;;;;;;;;19.91;63.32;100617.72;5089915;28;20060;-69
2022/08/21 06:03:18;;;;;;;3.75;2.78;;;;;;;20.26;62.26;100621.91;5086890;28;20555;-68
2022/08/21 06:05:45;;;;;;;3.75;2.40;;;;;;;20.65;62.05;100620.13;5087903;28;20032;-67
2022/08/21 06:08:10;;;;;;;3.38;2.28;;;;;;;20.98;61.36;100620.72;5069246;28;20161;-68
2022/08/21 06:10:35;;;;;;;2.75;2.10;;;;;;;21.33;61.11;100627.47;5089990;28;20112;-67
2022/08/21 06:13:01;;;;;;;3.83;2.45;;;;;;;21.67;59.79;100636.09;5086975;28;20480;-69
2022/08/21 06:15:26;;;;;;;3.47;2.50;;;;;;;21.99;59.26;100636.78;5070680;28;20035;-68
2022/08/21 06:17:53;;;;;;;6.72;3.17;;;;;;;22.14;58.20;100633.69;5087348;28;20040;-68
2022/08/21 06:20:19;;;;;;;6.55;3.67;;;;;;;22.26;57.64;100627.38;5086949;28;20072;-69
2022/08/21 06:22:44;;;;;;;3.17;2.40;;;;;;;22.48;57.45;100632.28;5088409;28;20064;-68
2022/08/21 06:25:10;;;;;;;3.75;2.70;;;;;;;22.78;56.84;100631.44;5070586;28;20493;-68
2022/08/21 06:27:35;;;;;;;4.85;3.22;;;;;;;22.96;55.58;100628.69;5087082;28;20039;-68
2022/08/21 06:30:01;;;;;;;3.63;2.30;;;;;;;23.13;54.71;100628.84;5088649;28;20430;-70
2022/08/21 06:32:27;;;;;;;3.72;2.28;;;;;;;23.37;54.12;100627.00;5079014;28;20043;-69
2022/08/21 06:34:52;;;;;;;3.80;3.00;;;;;;;23.59;52.68;100639.91;5086089;28;20039;-68
2022/08/21 06:37:17;;;;;;;4.97;2.78;;;;;;;23.68;51.95;100638.50;5088102;28;20036;-68
2022/08/21 06:39:42;;;;;;;4.00;2.60;;;;;;;23.71;50.91;100633.44;5087308;28;20044;-68
2022/08/21 06:42:14;;;;;;;5.75;2.95;;;;;;;23.74;50.23;100638.41;5087645;28;20290;-67
2022/08/21 06:44:39;;;;;;;4.18;2.42;;;;;;;23.83;50.86;100636.16;5082962;28;20130;-67
2022/08/21 06:47:04;;;;;;;4.07;2.23;;;;;;;23.94;50.25;100634.50;5072622;28;20035;-66
2022/08/21 06:49:29;;;;;;;5.18;2.25;;;;;;;24.19;50.48;100630.69;5089200;28;20319;-67
2022/08/21 06:51:55;;;;;;;4.55;2.40;;;;;;;24.44;49.45;100631.19;5068562;28;20615;-68
2022/08/21 06:54:20;;;;;;;3.92;2.53;;;;;;;24.63;48.36;100631.03;5086402;28;20055;-66
2022/08/21 06:56:46;;;;;;;;;;;;;;;24.81;48.46;100630.81;5086743;28;20066;-68
2022/08/21 06:59:11;;;;;;;3.07;2.17;;;;;;;24.98;48.32;100630.84;5087782;28;19951;-67
2022/08/21 07:01:36;;;;;;;3.22;2.10;;;;;;;25.13;47.38;100633.78;5087307;28;20040;-66
2022/08/21 07:04:02;;;;;;;4.50;2.50;;;;;;;25.27;47.33;100628.09;5087286;28;20040;-66
2022/08/21 07:06:27;;;;;;;3.80;2.50;;;;;;;25.32;46.79;100641.69;5086501;28;20044;-67
2022/08/21 07:08:52;;;;;;;3.58;2.25;;;;;;;25.48;46.79;100634.63;5085948;28;20044;-68
2022/08/21 07:11:23;;;;;;;5.70;2.50;;;;;;;25.61;46.02;100632.38;5088479;28;20035;-66
2022/08/21 07:13:51;;;;;;;2.90;1.95;;;;;;;25.87;45.81;100640.09;5087155;28;20275;-68
2022/08/21 07:16:16;;;;;;;4.93;2.40;;;;;;;26.03;44.99;100636.50;5069406;28;20028;-66
2022/08/21 07:18:41;;;;;;;4.93;2.55;;;;;;;26.13;44.10;100633.91;5086878;28;20317;-67
2022/08/21 07:21:08;;;;;;;3.42;2.10;;;;;;;26.20;44.26;100629.13;5086134;28;21431;-66
2022/08/21 07:23:37;;;;;;;2.75;1.98;;;;;;;26.27;43.30;100628.94;5087098;28;20043;-66
2022/08/21 07:26:02;;;;;;;3.10;2.35;;;;;;;26.43;43.31;100630.75;5085737;28;20060;-68
2022/08/21 07:28:29;;;;;;;4.72;2.00;;;;;;;26.68;43.27;100626.69;5086600;28;20032;-67
2022/08/21 07:30:57;;;;;;;4.57;2.10;;;;;;;26.83;42.87;100624.09;5078797;28;20032;-67
2022/08/21 07:33:24;;;;;;;3.15;2.15;;;;;;;27.19;42.63;100629.00;5086398;28;20337;-67
2022/08/21 07:35:49;;;;;;;2.63;1.90;;;;;;;27.46;42.28;100618.94;5085387;28;20111;-70
2022/08/21 07:38:15;;;;;;;3.95;2.25;;;;;;;27.43;41.26;100615.91;5085657;28;20130;-66
2022/08/21 07:40:40;;;;;;;3.13;2.03;;;;;;;27.60;41.88;100611.13;5085489;28;20085;-67
2022/08/21 07:43:06;;;;;;;3.40;2.20;;;;;;;27.87;41.89;100616.44;5086358;28;20062;-67
2022/08/21 07:45:31;;;;;;;3.20;1.85;;;;;;;28.33;41.55;100621.22;5086960;28;20040;-68
2022/08/21 07:47:57;;;;;;;3.05;1.98;;;;;;;28.61;41.22;100611.00;5086283;28;20397;-67
2022/08/21 07:50:23;;;;;;;3.78;2.60;;;;;;;28.98;39.69;100618.91;5071404;28;20284;-68
2022/08/21 07:52:48;;;;;;;;;;;;;;;29.09;39.77;100617.84;5087478;28;20040;-70
2022/08/21 07:55:15;;;;;;;;;;;;;;;29.39;38.78;100611.56;5087333;28;19961;-68
2022/08/21 07:57:41;;;;;;;3.90;2.30;;;;;;;29.40;38.33;100618.63;5086408;28;20095;-67
2022/08/21 08:00:11;;;;;;;3.33;2.45;;;;;;;29.14;36.90;100617.03;5084959;28;20127;-68
2022/08/21 08:02:36;;;;;;;4.95;2.50;;;;;;;29.02;37.35;100622.72;5084393;28;20040;-69
2022/08/21 08:05:08;;;;;;;3.85;2.42;;;;;;;29.00;37.23;100616.72;5085101;28;20039;-67
2022/08/21 08:07:34;;;;;;;5.53;2.47;;;;;;;29.28;37.47;100609.94;5082713;28;20040;-67
2022/08/21 08:09:59;;;;;;;4.07;2.40;;;;;;;29.75;36.16;100613.41;5085332;28;20035;-67
2022/08/21 08:12:29;;;;;;;3.78;2.33;;;;;;;29.92;36.52;100608.41;5085974;28;20131;-67
2022/08/21 08:14:59;;;;;;;4.53;2.63;;;;;;;30.20;36.17;100615.09;5085206;28;20118;-67
2022/08/21 08:17:25;;;;;;;3.25;1.88;;;;;;;30.58;36.27;100610.00;5085790;28;20043;-71
2022/08/21 08:19:51;;;;;;;2.55;1.90;;;;;;;30.98;35.18;100613.53;5083259;28;20032;-67
2022/08/21 08:22:19;;;;;;;;;;;;;;;31.11;34.14;100612.88;5086475;28;20508;-68
2022/08/21 08:24:48;;;;;;;3.58;2.15;;;;;;;31.37;33.67;100607.16;5086857;28;20015;-68
2022/08/21 08:27:14;;;;;;;3.50;2.00;;;;;;;31.49;34.05;100599.41;5085444;28;20052;-67
2022/08/21 08:29:39;;;;;;;3.13;1.80;;;;;;;32.05;33.06;100600.66;5086169;28;20036;-68
2022/08/21 08:32:07;;;;;;;4.33;2.13;;;;;;;32.57;32.68;100603.50;5085361;28;20044;-68
2022/08/21 08:34:32;;;;;;;3.88;2.35;;;;;;;32.94;31.44;100597.16;5085902;28;20278;-69
2022/08/21 08:36:58;;;;;;;3.08;2.00;;;;;;;32.99;31.67;100593.53;5086168;28;20046;-68
2022/08/21 08:39:23;;;;;;;3.97;2.40;;;;;;;33.19;30.54;100587.69;5084486;28;20052;-67
2022/08/21 08:41:52;;;;;;;4.45;2.70;;;;;;;33.58;29.92;100583.69;5086089;28;20123;-70
2022/08/21 08:44:17;;;;;;;5.10;2.55;;;;;;;33.47;29.70;100578.69;5084258;28;20036;-68
2022/08/21 08:46:50;;;;;;;3.22;2.00;;;;;;;33.58;30.36;100582.88;5086109;28;20389;-67
2022/08/21 08:49:26;;;;;;;3.65;2.00;;;;;;;34.23;29.45;100579.06;5084997;28;20472;-68
2022/08/21 08:52:01;;;;;;;4.03;2.25;;;;;;;34.79;29.10;100569.47;5085745;28;20059;-68
2022/08/21 08:54:44;;;;;;;2.97;1.70;;;;;;;35.37;28.82;100572.38;5085637;28;20328;-68
2022/08/21 08:57:17;;;;;;;3.55;2.30;;;;;;;35.43;27.92;100568.38;5085097;28;20141;-67
2022/08/21 08:59:46;;;;;;;3.85;2.40;;;;;;;35.19;28.04;100569.56;5080544;28;20048;-69
2022/08/21 09:02:14;;;;;;;4.63;2.67;;;;;;;35.60;27.06;100567.59;5081626;28;20489;-67
2022/08/21 09:04:39;;;;;;;4.68;2.50;;;;;;;36.21;26.83;100568.56;5067748;28;20055;-67
2022/08/21 09:07:16;;;;;;;5.53;2.67;;;;;;;36.66;25.71;100567.41;5084335;28;20055;-68
2022/08/21 09:10:10;;;;;;;4.13;2.38;;;;;;;36.73;25.85;100563.03;5084884;28;20036;-67
2022/08/21 09:13:12;;;;;;;4.93;2.65;;;;;;;37.29;25.14;100554.75;5065363;28;20113;-68
2022/08/21 09:15:53;;;;;;;3.72;2.50;;;;;;;37.07;24.89;100549.50;5083352;28;20051;-68
2022/08/21 09:18:43;;;;;;;4.55;2.67;;;;;;;37.41;24.55;100546.59;5083380;28;20112;-68
2022/08/21 09:21:46;;;;;;;5.15;2.70;;;;;;;37.58;23.50;100542.13;5082133;28;20040;-68
2022/08/21 09:24:23;;;;;;;4.95;2.95;;;;;;;37.73;23.32;100544.28;5084104;28;20033;-68
2022/08/21 09:27:11;;;;;;;3.50;2.17;;;;;;;37.70;24.18;100539.47;5079177;28;20040;-68
2022/08/21 09:29:43;;;;;;;3.42;2.10;;;;;;;38.24;23.76;100531.28;5079117;28;20036;-68
2022/08/21 09:32:17;;;;;;;5.65;3.10;;;;;;;38.33;22.50;100535.91;5081478;28;20396;-68
2022/08/21 09:34:42;;;;;;;3.05;2.25;;;;;;;38.17;23.24;100536.53;5068515;28;20029;-68
2022/08/21 09:37:17;;;;;;;2.90;1.70;;;;;;;38.93;22.92;100534.53;5083400;28;20499;-67
2022/08/21 09:39:43;;;;;;;5.60;2.20;;;;;;;39.28;22.35;100531.28;5073627;28;20043;-68
2022/08/21 09:42:10;;;;;;;5.10;2.20;;;;;;;39.77;22.08;100539.56;5079522;28;20108;-68
2022/08/21 09:44:43;;;;;;;4.07;2.40;;;;;;;39.92;21.59;100541.63;5077555;28;20028;-69
2022/08/21 09:47:13;;;;;;;4.18;2.20;;;;;;;40.27;20.14;100534.75;5065589;28;20409;-68
2022/08/21 09:49:41;;;;;;;3.70;1.83;;;;;;;40.75;19.62;100538.44;5082755;28;20032;-68
2022/08/21 09:52:17;;;;;;;4.10;1.90;;;;;;;40.70;18.32;100530.38;5084990;28;20150;-68
2022/08/21 09:54:45;;;;;;;4.95;1.80;;;;;;;41.00;18.65;100533.53;5083049;28;20722;-68
2022/08/21 09:59:54;;;;;;;3.63;1.95;;;;;;;40.77;18.29;100530.56;5084518;28;20067;-68
2022/08/21 10:02:29;;;;;;;4.22;1.90;;;;;;;41.44;17.81;100527.06;5084908;28;20472;-68
2022/08/21 10:04:59;;;;;;;5.30;2.38;;;;;;;41.70;17.54;100529.25;5076953;28;20089;-68
2022/08/21 10:07:28;;;;;;;4.97;2.22;;;;;;;41.75;16.80;100523.41;5085255;28;20385;-68
2022/08/21 10:10:01;;;;;;;4.35;2.10;;;;;;;41.78;16.72;100528.22;5084426;28;20109;-68
2022/08/21 10:12:41;;;;;;;4.07;2.10;;;;;;;42.28;16.44;100522.91;5085593;28;20096;-69
2022/08/21 10:15:15;;;;;;;4.93;2.17;;;;;;;42.50;15.90;100522.16;5085335;28;20040;-68
2022/08/21 10:18:03;;;;;;;5.00;2.30;;;;;;;41.54;15.86;100518.97;5085325;28;20375;-69
2022/08/21 10:20:49;;;;;;;4.43;2.28;;;;;;;41.07;17.39;100519.84;5055840;28;20063;-68
2022/08/21 10:23:33;;;;;;;5.13;2.30;;;;;;;41.28;17.16;100508.44;5085504;28;20042;-69
2022/08/21 10:26:12;;;;;;;4.28;2.10;;;;;;;42.00;16.15;100512.81;5086252;28;21152;-70
2022/08/21 10:28:58;;;;;;;5.47;2.53;;;;;;;42.30;15.70;100507.47;5082841;28;20040;-67
2022/08/21 10:31:36;;;;;;;4.13;2.00;;;;;;;41.45;16.57;100507.25;5083830;28;20400;-70
2022/08/21 10:34:26;;;;;;;3.88;2.10;;;;;;;41.02;16.80;100505.41;5070757;28;20077;-70
2022/08/21 10:37:17;;;;;;;4.82;2.13;;;;;;;39.25;17.87;100509.84;5091149;28;20062;-69
2022/08/21 10:40:01;;;;;;;3.33;1.98;;;;;;;39.37;18.77;100498.00;5086781;28;20630;-68
2022/08/21 10:42:48;;;;;;;3.90;2.00;;;;;;;40.92;17.24;100499.25;5091842;28;20036;-69
2022/08/21 10:45:42;;;;;;;3.60;1.90;;;;;;;41.09;17.12;100492.50;5088086;28;20117;-69
2022/08/21 10:48:19;;;;;;;3.80;2.10;;;;;;;39.29;18.62;100491.44;5087375;28;20097;-68
2022/08/21 10:50:51;;;;;;;4.38;2.83;;;;;;;39.69;18.72;100490.69;5082831;28;20036;-69
2022/08/21 10:53:25;;;;;;;4.50;2.20;;;;;;;38.78;19.29;100491.75;5080326;28;20121;-66
2022/08/21 10:55:54;;;;;;;7.10;2.60;;;;;;;39.37;18.94;100496.03;5086874;28;20036;-71
2022/08/21 10:58:31;;;;;;;3.92;2.17;;;;;;;39.66;18.62;100491.38;5082553;28;20047;-68
2022/08/21 11:01:20;;;;;;;3.78;2.00;;;;;;;38.77;19.21;100487.34;5084870;28;20040;-70
2022/08/21 11:03:51;;;;;;;3.42;1.90;;;;;;;39.40;18.49;100487.06;5089160;28;20066;-69
2022/08/21 11:06:25;;;;;;;4.95;2.40;;;;;;;38.45;19.31;100483.47;5085084;28;20104;-72
2022/08/21 11:08:56;;;;;;;4.03;2.25;;;;;;;37.67;19.82;100476.66;5067730;28;20506;-69
2022/08/21 11:11:31;;;;;;;4.43;2.10;;;;;;;37.21;20.70;100470.13;5086320;28;20060;-69
2022/08/21 11:14:21;;;;;;;5.25;2.45;;;;;;;38.36;19.32;100474.47;5086017;28;20074;-70
2022/08/21 11:17:05;;;;;;;3.45;2.10;;;;;;;36.71;20.32;100468.06;5085432;28;20055;-71
2022/08/21 11:19:41;;;;;;;2.60;1.63;;;;;;;37.79;19.71;100457.41;5087555;28;20044;-70
2022/08/21 11:22:22;;;;;;;3.45;1.77;;;;;;;39.88;18.11;100459.59;5086814;28;20096;-69
2022/08/21 11:25:00;;;;;;;4.45;1.90;;;;;;;41.14;17.53;100463.72;5070515;28;20543;-69
2022/08/21 11:27:36;;;;;;;5.60;2.30;;;;;;;42.06;15.63;100455.81;5077629;28;20035;-68
2022/08/21 11:30:01;;;;;;;3.53;1.92;;;;;;;40.01;17.51;100463.16;5086155;28;20028;-70
2022/08/21 11:32:52;;;;;;;3.92;2.00;;;;;;;37.59;19.52;100455.44;5085213;28;20481;-68
2022/08/21 11:35:35;;;;;;;3.40;1.80;;;;;;;35.61;20.76;100446.31;5084582;28;20547;-68
2022/08/21 11:38:15;;;;;;;3.55;1.70;;;;;;;36.55;21.16;100454.78;5084846;28;20036;-71